createdAt,value
2019-03-20T00:00:50.295Z,3.052673
2019-03-20T00:01:50.450Z,3.032532
2019-03-20T00:02:50.563Z,3.01239
2019-03-20T00:03:51.644Z,3.002319
2019-03-20T00:04:50.753Z,2.972107
2019-03-20T00:05:50.849Z,2.951965
2019-03-20T00:06:50.970Z,2.931824
2019-03-20T00:07:51.069Z,2.931824
2019-03-20T00:08:51.165Z,2.911682
2019-03-20T00:09:51.295Z,2.901611
2019-03-20T00:10:51.388Z,2.901611
2019-03-20T00:11:51.525Z,2.88147
2019-03-20T00:12:51.616Z,2.88147
2019-03-20T00:13:51.775Z,2.911682
2019-03-20T00:14:51.886Z,2.911682
2019-03-20T00:15:51.995Z,2.941895
2019-03-20T00:16:52.130Z,2.941895
2019-03-20T00:17:52.211Z,2.941895
2019-03-20T00:18:52.312Z,2.931824
2019-03-20T00:19:52.417Z,2.931824
2019-03-20T00:20:52.523Z,2.901611
2019-03-20T00:21:52.645Z,2.901611
2019-03-20T00:22:52.751Z,2.88147
2019-03-20T00:23:52.918Z,2.871399
2019-03-20T00:24:53.010Z,2.871399
2019-03-20T00:25:53.128Z,2.831116
2019-03-20T00:26:53.253Z,2.821045
2019-03-20T00:27:53.379Z,2.821045
2019-03-20T00:28:53.485Z,2.800903
2019-03-20T00:29:53.590Z,2.770691
2019-03-20T00:30:53.707Z,2.750549
2019-03-20T00:31:53.840Z,2.720337
2019-03-20T00:32:53.965Z,2.700195
2019-03-20T00:33:54.112Z,2.690125
2019-03-20T00:35:00.684Z,2.690125
2019-03-20T00:35:54.315Z,2.680054
2019-03-20T00:36:54.424Z,2.680054
2019-03-20T00:37:54.413Z,2.680054
2019-03-20T00:38:54.412Z,2.639771
2019-03-20T00:39:54.526Z,2.619629
2019-03-20T00:40:54.627Z,2.619629
2019-03-20T00:41:54.735Z,2.619629
2019-03-20T00:42:54.730Z,2.609558
2019-03-20T00:43:54.828Z,2.619629
2019-03-20T00:44:54.933Z,2.589417
2019-03-20T00:45:54.926Z,2.589417
2019-03-20T00:46:55.034Z,2.589417
2019-03-20T00:47:56.079Z,2.579346
2019-03-20T00:48:55.180Z,2.569275
2019-03-20T00:49:55.276Z,2.549133
2019-03-20T00:50:55.377Z,2.539062
2019-03-20T00:51:55.471Z,2.518921
2019-03-20T00:52:55.615Z,2.50885
2019-03-20T00:53:55.733Z,2.468567
2019-03-20T00:54:55.842Z,2.498779
2019-03-20T00:55:55.949Z,2.468567
2019-03-20T00:56:56.075Z,2.468567
2019-03-20T00:57:56.190Z,2.468567
2019-03-20T00:58:56.288Z,2.498779
2019-03-20T00:59:56.391Z,2.498779
2019-03-20T01:00:56.493Z,2.458496
2019-03-20T01:01:56.595Z,2.468567
2019-03-20T01:02:56.743Z,2.498779
2019-03-20T01:03:56.843Z,2.468567
2019-03-20T01:04:56.972Z,2.458496
2019-03-20T01:05:58.033Z,2.438354
2019-03-20T01:06:57.133Z,2.428284
2019-03-20T01:07:57.272Z,2.408142
2019-03-20T01:08:57.388Z,2.408142
2019-03-20T01:09:57.488Z,2.398071
2019-03-20T01:10:57.583Z,2.398071
2019-03-20T01:11:57.694Z,2.398071
2019-03-20T01:12:57.733Z,2.367859
2019-03-20T01:13:57.845Z,2.337646
2019-03-20T01:14:57.957Z,2.337646
2019-03-20T01:15:58.066Z,2.327576
2019-03-20T01:16:59.158Z,2.317505
2019-03-20T01:17:58.296Z,2.297363
2019-03-20T01:18:58.401Z,2.297363
2019-03-20T01:19:58.511Z,2.277222
2019-03-20T01:20:58.642Z,2.25708
2019-03-20T01:21:58.753Z,2.277222
2019-03-20T01:22:58.890Z,2.25708
2019-03-20T01:23:58.996Z,2.25708
2019-03-20T01:24:59.102Z,2.25708
2019-03-20T01:25:59.202Z,2.277222
2019-03-20T01:26:59.309Z,2.25708
2019-03-20T01:27:59.383Z,2.25708
2019-03-20T01:28:59.488Z,2.247009
2019-03-20T01:29:59.572Z,2.25708
2019-03-20T01:30:59.675Z,2.247009
2019-03-20T01:31:59.776Z,2.226868
2019-03-20T01:32:59.912Z,2.226868
2019-03-20T01:34:00.029Z,2.216797
2019-03-20T01:35:00.181Z,2.206726
2019-03-20T01:36:01.216Z,2.206726
2019-03-20T01:37:00.305Z,2.206726
2019-03-20T01:38:00.297Z,2.216797
2019-03-20T01:39:00.459Z,2.216797
2019-03-20T01:40:00.564Z,2.216797
2019-03-20T01:41:00.664Z,2.216797
2019-03-20T01:42:00.792Z,2.216797
2019-03-20T01:43:00.933Z,2.216797
2019-03-20T01:44:01.042Z,2.206726
2019-03-20T01:45:01.171Z,2.206726
2019-03-20T01:46:01.229Z,2.176514
2019-03-20T01:47:01.357Z,2.176514
2019-03-20T01:48:01.368Z,2.186584
2019-03-20T01:49:01.473Z,2.186584
2019-03-20T01:50:01.604Z,2.156372
2019-03-20T01:51:01.700Z,2.176514
2019-03-20T01:52:01.816Z,2.176514
2019-03-20T01:53:01.946Z,2.206726
2019-03-20T01:54:02.070Z,2.176514
2019-03-20T01:55:02.198Z,2.176514
2019-03-20T01:56:02.307Z,2.156372
2019-03-20T01:57:02.412Z,2.156372
2019-03-20T01:58:02.577Z,2.146301
2019-03-20T01:59:02.600Z,2.13623
2019-03-20T02:00:02.579Z,2.13623
2019-03-20T02:01:02.735Z,2.13623
2019-03-20T02:02:02.784Z,2.095947
2019-03-20T02:03:02.899Z,2.075806
2019-03-20T02:04:03.002Z,2.065735
2019-03-20T02:05:03.110Z,2.045593
2019-03-20T02:06:03.228Z,2.045593
2019-03-20T02:07:03.335Z,2.035522
2019-03-20T02:08:03.454Z,2.025452
2019-03-20T02:09:03.577Z,2.025452
2019-03-20T02:10:03.685Z,2.00531
2019-03-20T02:11:03.688Z,1.995239
2019-03-20T02:12:03.793Z,1.995239
2019-03-20T02:13:03.939Z,1.975098
2019-03-20T02:14:04.041Z,1.965027
2019-03-20T02:15:05.141Z,1.965027
2019-03-20T02:16:04.264Z,1.954956
2019-03-20T02:17:04.352Z,1.934814
2019-03-20T02:18:04.502Z,1.924744
2019-03-20T02:19:04.642Z,1.894531
2019-03-20T02:20:04.691Z,1.88446
2019-03-20T02:21:04.787Z,1.88446
2019-03-20T02:22:04.927Z,1.864319
2019-03-20T02:23:05.058Z,1.844177
2019-03-20T02:24:05.155Z,1.844177
2019-03-20T02:25:05.287Z,1.854248
2019-03-20T02:26:05.394Z,1.844177
2019-03-20T02:27:05.506Z,1.844177
2019-03-20T02:28:05.670Z,1.824036
2019-03-20T02:29:05.637Z,1.844177
2019-03-20T02:30:05.726Z,1.824036
2019-03-20T02:31:05.839Z,1.824036
2019-03-20T02:32:05.980Z,1.824036
2019-03-20T02:33:06.102Z,1.824036
2019-03-20T02:34:06.079Z,1.824036
2019-03-20T02:35:06.174Z,1.824036
2019-03-20T02:36:06.268Z,1.793823
2019-03-20T02:37:06.427Z,1.793823
2019-03-20T02:38:06.491Z,1.783752
2019-03-20T02:39:06.629Z,1.783752
2019-03-20T02:40:06.753Z,1.763611
2019-03-20T02:41:06.876Z,1.763611
2019-03-20T02:42:06.990Z,1.763611
2019-03-20T02:43:07.105Z,1.763611
2019-03-20T02:44:07.182Z,1.75354
2019-03-20T02:45:07.306Z,1.763611
2019-03-20T02:46:07.403Z,1.763611
2019-03-20T02:47:07.502Z,1.743469
2019-03-20T02:48:07.605Z,1.75354
2019-03-20T02:49:07.749Z,1.75354
2019-03-20T02:50:07.849Z,1.713257
2019-03-20T02:51:07.950Z,1.743469
2019-03-20T02:52:08.089Z,1.713257
2019-03-20T02:53:08.182Z,1.703186
2019-03-20T02:54:08.307Z,1.713257
2019-03-20T02:55:08.338Z,1.713257
2019-03-20T02:56:08.438Z,1.713257
2019-03-20T02:57:08.564Z,1.713257
2019-03-20T02:58:08.660Z,1.683044
2019-03-20T02:59:08.685Z,1.683044
2019-03-20T03:00:08.801Z,1.672974
2019-03-20T03:01:08.908Z,1.662903
2019-03-20T03:02:09.011Z,1.642761
2019-03-20T03:03:09.112Z,1.63269
2019-03-20T03:04:09.214Z,1.602478
2019-03-20T03:05:09.321Z,1.602478
2019-03-20T03:06:09.439Z,1.612549
2019-03-20T03:07:09.558Z,1.612549
2019-03-20T03:08:09.648Z,1.602478
2019-03-20T03:09:09.782Z,1.602478
2019-03-20T03:10:09.882Z,1.602478
2019-03-20T03:11:09.986Z,1.602478
2019-03-20T03:12:10.085Z,1.602478
2019-03-20T03:13:11.179Z,1.602478
2019-03-20T03:14:10.314Z,1.602478
2019-03-20T03:15:10.413Z,1.602478
2019-03-20T03:16:10.513Z,1.572266
2019-03-20T03:17:10.618Z,1.602478
2019-03-20T03:18:10.729Z,1.602478
2019-03-20T03:19:10.864Z,1.572266
2019-03-20T03:20:10.966Z,1.562195
2019-03-20T03:21:11.063Z,1.531982
2019-03-20T03:22:11.155Z,1.531982
2019-03-20T03:23:11.250Z,1.562195
2019-03-20T03:24:11.423Z,1.572266
2019-03-20T03:25:11.531Z,1.562195
2019-03-20T03:26:11.631Z,1.531982
2019-03-20T03:27:11.742Z,1.531982
2019-03-20T03:28:11.843Z,1.521912
2019-03-20T03:29:11.875Z,1.50177
2019-03-20T03:30:11.989Z,1.521912
2019-03-20T03:31:12.127Z,1.50177
2019-03-20T03:32:12.236Z,1.491699
2019-03-20T03:33:12.285Z,1.491699
2019-03-20T03:34:12.398Z,1.481628
2019-03-20T03:35:16.577Z,1.481628
2019-03-20T03:36:20.871Z,1.50177
2019-03-20T03:37:12.693Z,1.491699
2019-03-20T03:38:12.785Z,1.491699
2019-03-20T03:39:12.912Z,1.491699
2019-03-20T03:40:13.016Z,1.491699
2019-03-20T03:41:13.118Z,1.491699
2019-03-20T03:42:13.208Z,1.481628
2019-03-20T03:43:13.324Z,1.491699
2019-03-20T03:44:13.452Z,1.481628
2019-03-20T03:45:13.544Z,1.481628
2019-03-20T03:46:13.658Z,1.461487
2019-03-20T03:47:13.785Z,1.481628
2019-03-20T03:48:13.876Z,1.481628
2019-03-20T03:49:14.006Z,1.491699
2019-03-20T03:50:14.108Z,1.562195
2019-03-20T03:51:14.209Z,1.562195
2019-03-20T03:52:14.323Z,1.602478
2019-03-20T03:53:14.466Z,1.602478
2019-03-20T03:54:14.587Z,1.672974
2019-03-20T03:55:14.795Z,1.844177
2019-03-20T03:56:14.795Z,1.864319
2019-03-20T03:57:14.896Z,1.894531
2019-03-20T03:58:14.900Z,1.954956
2019-03-20T03:59:15.029Z,1.965027
2019-03-20T04:00:15.138Z,2.025452
2019-03-20T04:01:15.247Z,2.116089
2019-03-20T04:02:15.242Z,2.247009
2019-03-20T04:03:15.377Z,2.357788
2019-03-20T04:04:15.514Z,2.468567
2019-03-20T04:05:15.514Z,2.579346
2019-03-20T04:06:16.628Z,2.589417
2019-03-20T04:07:16.733Z,2.579346
2019-03-20T04:08:15.824Z,2.579346
2019-03-20T04:09:15.952Z,2.549133
2019-03-20T04:10:16.050Z,2.50885
2019-03-20T04:11:16.170Z,2.458496
2019-03-20T04:12:16.266Z,2.408142
2019-03-20T04:13:16.361Z,2.367859
2019-03-20T04:14:16.494Z,2.367859
2019-03-20T04:15:16.612Z,2.357788
2019-03-20T04:16:16.722Z,2.317505
2019-03-20T04:17:16.825Z,2.277222
2019-03-20T04:18:16.937Z,2.25708
2019-03-20T04:19:17.065Z,2.226868
2019-03-20T04:20:17.178Z,2.216797
2019-03-20T04:21:17.273Z,2.247009
2019-03-20T04:22:17.367Z,2.25708
2019-03-20T04:23:17.471Z,2.327576
2019-03-20T04:24:17.595Z,2.367859
2019-03-20T04:25:17.705Z,2.388
2019-03-20T04:26:17.801Z,2.388
2019-03-20T04:27:17.909Z,2.438354
2019-03-20T04:28:18.053Z,2.468567
2019-03-20T04:29:18.078Z,2.518921
2019-03-20T04:30:18.061Z,2.549133
2019-03-20T04:31:18.206Z,2.569275
2019-03-20T04:32:18.196Z,2.579346
2019-03-20T04:33:18.327Z,2.609558
2019-03-20T04:34:18.470Z,2.690125
2019-03-20T04:35:18.577Z,2.76062
2019-03-20T04:36:18.686Z,2.770691
2019-03-20T04:37:18.789Z,2.831116
2019-03-20T04:38:18.890Z,2.911682
2019-03-20T04:39:19.035Z,2.941895
2019-03-20T04:40:19.152Z,2.901611
2019-03-20T04:41:19.252Z,2.901611
2019-03-20T04:42:19.383Z,2.931824
2019-03-20T04:43:19.505Z,2.941895
2019-03-20T04:44:19.657Z,2.951965
2019-03-20T04:45:19.757Z,2.951965
2019-03-20T04:46:19.854Z,2.931824
2019-03-20T04:47:19.946Z,2.851257
2019-03-20T04:48:20.072Z,2.821045
2019-03-20T04:49:20.207Z,2.750549
2019-03-20T04:50:20.306Z,2.690125
2019-03-20T04:51:20.416Z,2.639771
2019-03-20T04:52:20.521Z,2.690125
2019-03-20T04:53:20.621Z,2.690125
2019-03-20T04:54:20.756Z,2.790833
2019-03-20T04:55:20.886Z,2.821045
2019-03-20T04:56:21.034Z,2.901611
2019-03-20T04:57:21.120Z,2.972107
2019-03-20T04:58:21.224Z,3.052673
2019-03-20T04:59:21.322Z,3.062744
2019-03-20T05:00:21.334Z,3.01239
2019-03-20T05:01:21.435Z,2.951965
2019-03-20T05:02:21.537Z,2.911682
2019-03-20T05:03:21.631Z,2.88147
2019-03-20T05:04:21.755Z,2.821045
2019-03-20T05:05:21.740Z,2.790833
2019-03-20T05:06:21.840Z,2.750549
2019-03-20T05:07:21.967Z,2.730408
2019-03-20T05:08:22.080Z,2.680054
2019-03-20T05:09:22.208Z,2.619629
2019-03-20T05:10:22.353Z,2.609558
2019-03-20T05:11:22.454Z,2.569275
2019-03-20T05:12:22.575Z,2.50885
2019-03-20T05:13:22.673Z,2.438354
2019-03-20T05:14:22.771Z,2.398071
2019-03-20T05:15:22.919Z,2.337646
2019-03-20T05:16:23.014Z,2.277222
2019-03-20T05:17:23.104Z,2.226868
2019-03-20T05:18:23.209Z,2.206726
2019-03-20T05:19:23.364Z,2.176514
2019-03-20T05:20:23.499Z,2.13623
2019-03-20T05:21:23.603Z,2.116089
2019-03-20T05:22:23.712Z,2.045593
2019-03-20T05:23:23.819Z,2.025452
2019-03-20T05:24:23.937Z,2.00531
2019-03-20T05:25:24.078Z,1.965027
2019-03-20T05:26:24.201Z,1.954956
2019-03-20T05:27:24.294Z,1.934814
2019-03-20T05:28:24.396Z,1.924744
2019-03-20T05:29:24.516Z,1.88446
2019-03-20T05:30:24.539Z,1.894531
2019-03-20T05:31:24.629Z,1.864319
2019-03-20T05:32:24.762Z,1.844177
2019-03-20T05:33:24.873Z,1.844177
2019-03-20T05:34:25.012Z,1.844177
2019-03-20T05:35:25.143Z,1.824036
2019-03-20T05:36:25.231Z,1.844177
2019-03-20T05:37:25.305Z,1.864319
2019-03-20T05:38:25.414Z,1.894531
2019-03-20T05:39:25.501Z,1.894531
2019-03-20T05:40:25.511Z,1.894531
2019-03-20T05:41:25.581Z,2.00531
2019-03-20T05:42:25.615Z,2.065735
2019-03-20T05:43:25.660Z,2.075806
2019-03-20T05:44:25.743Z,2.075806
2019-03-20T05:45:25.827Z,2.065735
2019-03-20T05:46:25.865Z,2.045593
2019-03-20T05:47:25.921Z,2.025452
2019-03-20T05:48:26.025Z,2.025452
2019-03-20T05:49:26.090Z,2.00531
2019-03-20T05:50:26.213Z,1.995239
2019-03-20T05:51:26.264Z,1.975098
2019-03-20T05:52:26.349Z,1.975098
2019-03-20T05:53:26.405Z,1.995239
2019-03-20T05:54:26.481Z,1.975098
2019-03-20T05:55:26.573Z,1.975098
2019-03-20T05:56:26.621Z,1.975098
2019-03-20T05:57:26.681Z,1.995239
2019-03-20T05:58:26.728Z,2.00531
2019-03-20T05:59:26.789Z,2.075806
2019-03-20T06:00:26.866Z,2.116089
2019-03-20T06:01:26.929Z,2.13623
2019-03-20T06:02:26.976Z,2.146301
2019-03-20T06:03:27.026Z,2.146301
2019-03-20T06:04:27.064Z,2.156372
2019-03-20T06:05:27.125Z,2.156372
2019-03-20T06:06:27.159Z,2.277222
2019-03-20T06:07:27.205Z,2.327576
2019-03-20T06:08:27.246Z,2.367859
2019-03-20T06:09:27.296Z,2.367859
2019-03-20T06:10:27.364Z,2.388
2019-03-20T06:11:27.405Z,2.388
2019-03-20T06:12:27.449Z,2.398071
2019-03-20T06:13:27.486Z,2.398071
2019-03-20T06:14:27.631Z,2.398071
2019-03-20T06:15:27.708Z,2.428284
2019-03-20T06:16:27.789Z,2.428284
2019-03-20T06:17:27.833Z,2.458496
2019-03-20T06:18:27.871Z,2.468567
2019-03-20T06:19:27.922Z,2.50885
2019-03-20T06:20:28.056Z,2.569275
2019-03-20T06:21:28.102Z,2.579346
2019-03-20T06:22:28.156Z,2.680054
2019-03-20T06:23:28.230Z,2.770691
2019-03-20T06:24:28.272Z,2.901611
2019-03-20T06:25:28.343Z,3.01239
2019-03-20T06:26:28.399Z,3.163452
2019-03-20T06:27:28.439Z,3.364868
2019-03-20T06:28:28.499Z,3.495789
2019-03-20T06:29:28.551Z,3.626709
2019-03-20T06:30:28.620Z,3.707275
2019-03-20T06:31:28.674Z,3.848267
2019-03-20T06:32:28.727Z,3.938904
2019-03-20T06:33:28.769Z,4.039612
2019-03-20T06:34:28.813Z,4.14032
2019-03-20T06:35:28.900Z,4.251099
2019-03-20T06:36:28.969Z,4.382019
2019-03-20T06:37:32.656Z,4.502869
2019-03-20T06:38:30.047Z,4.603577
2019-03-20T06:39:29.078Z,4.714355
2019-03-20T06:40:29.174Z,4.825134
2019-03-20T06:41:29.225Z,4.89563
2019-03-20T06:42:29.293Z,5.006409
2019-03-20T06:43:29.370Z,5.066833
2019-03-20T06:44:29.408Z,5.127258
2019-03-20T06:45:29.481Z,5.187683
2019-03-20T06:46:29.563Z,5.288391
2019-03-20T06:47:30.644Z,5.358887
2019-03-20T06:48:29.681Z,5.429382
2019-03-20T06:49:29.727Z,5.489807
2019-03-20T06:50:29.773Z,5.580444
2019-03-20T06:51:29.881Z,5.620728
2019-03-20T06:52:29.938Z,5.65094
2019-03-20T06:53:29.986Z,5.691223
2019-03-20T06:54:30.050Z,5.721436
2019-03-20T06:55:30.092Z,5.761719
2019-03-20T06:56:30.204Z,5.791931
2019-03-20T06:57:30.262Z,5.842285
2019-03-20T06:58:30.311Z,5.882568
2019-03-20T06:59:30.358Z,5.942993
2019-03-20T07:00:30.402Z,5.973206
2019-03-20T07:01:30.470Z,6.013489
2019-03-20T07:02:30.532Z,6.063843
2019-03-20T07:03:30.577Z,6.104126
2019-03-20T07:04:30.624Z,6.124268
2019-03-20T07:05:30.699Z,6.174622
2019-03-20T07:06:30.824Z,6.224976
2019-03-20T07:07:30.867Z,6.27533
2019-03-20T07:08:31.876Z,6.2854
2019-03-20T07:09:30.904Z,6.315613
2019-03-20T07:10:30.950Z,6.376038
2019-03-20T07:11:31.060Z,6.386108
2019-03-20T07:12:31.099Z,6.456604
2019-03-20T07:13:31.147Z,6.486816
2019-03-20T07:14:31.195Z,6.5271
2019-03-20T07:15:31.328Z,6.53717
2019-03-20T07:16:31.452Z,6.567383
2019-03-20T07:17:31.540Z,6.587524
2019-03-20T07:18:31.575Z,6.587524
2019-03-20T07:19:31.678Z,6.617737
2019-03-20T07:20:31.737Z,6.647949
2019-03-20T07:21:31.819Z,6.678162
2019-03-20T07:22:31.893Z,6.708374
2019-03-20T07:23:31.947Z,6.738586
2019-03-20T07:24:31.999Z,6.768799
2019-03-20T07:25:32.065Z,6.819153
2019-03-20T07:26:32.221Z,6.859436
2019-03-20T07:27:32.277Z,6.919861
2019-03-20T07:28:32.321Z,6.919861
2019-03-20T07:29:32.393Z,6.899719
2019-03-20T07:30:32.437Z,6.899719
2019-03-20T07:31:32.470Z,6.919861
2019-03-20T07:32:32.521Z,6.929932
2019-03-20T07:33:32.596Z,6.929932
2019-03-20T07:34:32.637Z,7.000427
2019-03-20T07:35:32.708Z,7.04071
2019-03-20T07:36:32.758Z,7.101135
2019-03-20T07:37:33.730Z,7.131348
2019-03-20T07:38:33.834Z,7.191772
2019-03-20T07:39:32.883Z,7.232056
2019-03-20T07:40:32.934Z,7.29248
2019-03-20T07:41:33.041Z,7.322693
2019-03-20T07:42:33.092Z,7.403259
2019-03-20T07:43:33.240Z,7.463684
2019-03-20T07:44:33.273Z,7.53418
2019-03-20T07:45:33.330Z,7.614746
2019-03-20T07:46:33.343Z,7.655029
2019-03-20T07:47:33.388Z,7.715454
2019-03-20T07:48:33.438Z,7.806091
2019-03-20T07:49:33.474Z,7.906799
2019-03-20T07:50:33.551Z,8.027649
2019-03-20T07:51:33.636Z,8.128357
2019-03-20T07:52:33.660Z,8.198853
2019-03-20T07:53:33.725Z,8.279419
2019-03-20T07:54:33.761Z,8.279419
2019-03-20T07:55:33.813Z,8.309631
2019-03-20T07:56:33.877Z,8.259277
2019-03-20T07:57:33.915Z,8.269348
2019-03-20T07:58:33.944Z,8.259277
2019-03-20T07:59:33.981Z,8.208923
2019-03-20T08:00:34.023Z,8.279419
2019-03-20T08:01:34.081Z,8.309631
2019-03-20T08:02:34.152Z,8.339844
2019-03-20T08:03:34.206Z,8.390198
2019-03-20T08:04:34.233Z,8.410339
2019-03-20T08:05:34.301Z,8.349915
2019-03-20T08:06:34.362Z,8.309631
2019-03-20T08:07:34.419Z,8.349915
2019-03-20T08:08:34.465Z,8.349915
2019-03-20T08:09:34.601Z,8.380127
2019-03-20T08:10:34.576Z,8.390198
2019-03-20T08:11:34.635Z,8.440552
2019-03-20T08:12:34.676Z,8.531189
2019-03-20T08:13:34.720Z,8.571472
2019-03-20T08:14:34.779Z,8.591614
2019-03-20T08:15:34.836Z,8.591614
2019-03-20T08:16:34.893Z,8.571472
2019-03-20T08:17:34.941Z,8.500977
2019-03-20T08:18:34.993Z,8.42041
2019-03-20T08:19:35.046Z,8.390198
2019-03-20T08:20:35.085Z,8.390198
2019-03-20T08:21:35.151Z,8.359985
2019-03-20T08:22:35.190Z,8.349915
2019-03-20T08:23:35.261Z,8.349915
2019-03-20T08:24:35.304Z,8.359985
2019-03-20T08:25:35.392Z,8.450623
2019-03-20T08:26:35.477Z,8.521118
2019-03-20T08:27:35.539Z,8.591614
2019-03-20T08:28:35.576Z,8.712463
2019-03-20T08:29:35.628Z,8.823242
2019-03-20T08:30:35.667Z,8.873596
2019-03-20T08:31:35.763Z,9.105225
2019-03-20T08:32:35.817Z,9.085083
2019-03-20T08:33:35.865Z,8.994446
2019-03-20T08:34:35.957Z,8.893738
2019-03-20T08:35:36.002Z,8.863525
2019-03-20T08:36:36.073Z,9.29657
2019-03-20T08:37:36.182Z,10.172729
2019-03-20T08:38:36.237Z,11.159668
2019-03-20T08:39:36.300Z,11.602783
2019-03-20T08:40:36.369Z,11.864624
2019-03-20T08:41:36.434Z,11.884766
2019-03-20T08:42:36.531Z,11.763916
2019-03-20T08:43:36.576Z,11.632996
2019-03-20T08:44:36.623Z,11.330872
2019-03-20T08:45:36.682Z,11.300659
2019-03-20T08:46:36.724Z,11.401367
2019-03-20T08:47:36.852Z,11.371155
2019-03-20T08:48:36.915Z,11.270447
2019-03-20T08:49:36.981Z,11.199951
2019-03-20T08:50:37.054Z,11.18988
2019-03-20T08:51:37.112Z,10.968323
2019-03-20T08:52:37.197Z,10.68634
2019-03-20T08:53:37.241Z,10.605774
2019-03-20T08:54:37.282Z,10.575562
2019-03-20T08:55:37.319Z,10.666199
2019-03-20T08:56:37.394Z,10.797119
2019-03-20T08:57:37.497Z,11.099243
2019-03-20T08:58:37.545Z,10.978394
2019-03-20T08:59:37.595Z,10.93811
2019-03-20T09:00:37.639Z,10.867615
2019-03-20T09:01:37.732Z,10.93811
2019-03-20T09:02:37.818Z,10.746765
2019-03-20T09:03:37.921Z,10.897827
2019-03-20T09:04:37.991Z,10.797119
2019-03-20T09:05:38.028Z,10.766907
2019-03-20T09:06:38.073Z,10.93811
2019-03-20T09:07:46.786Z,11.149597
2019-03-20T09:08:38.180Z,11.069031
2019-03-20T09:09:38.257Z,11.119385
2019-03-20T09:10:38.313Z,11.31073
2019-03-20T09:11:38.378Z,11.884766
2019-03-20T09:12:38.466Z,12.297668
2019-03-20T09:13:38.510Z,12.56958
2019-03-20T09:14:38.587Z,12.579651
2019-03-20T09:15:38.640Z,12.609863
2019-03-20T09:16:38.693Z,12.358093
2019-03-20T09:17:38.761Z,12.247314
2019-03-20T09:18:38.823Z,12.015686
2019-03-20T09:19:38.880Z,11.955261
2019-03-20T09:20:38.938Z,11.985474
2019-03-20T09:21:39.014Z,12.116394
2019-03-20T09:22:39.098Z,12.7005
2019-03-20T09:23:40.804Z,13.052979
2019-03-20T09:24:39.183Z,13.214111
2019-03-20T09:25:39.256Z,13.022766
2019-03-20T09:26:39.323Z,13.022766
2019-03-20T09:27:39.450Z,12.509155
2019-03-20T09:28:39.517Z,12.348022
2019-03-20T09:29:41.165Z,12.176819
2019-03-20T09:30:39.580Z,12.106323
2019-03-20T09:31:39.652Z,11.94519
2019-03-20T09:32:39.731Z,12.136536
2019-03-20T09:33:39.799Z,12.19696
2019-03-20T09:34:39.908Z,12.116394
2019-03-20T09:35:39.959Z,12.116394
2019-03-20T09:36:43.248Z,12.116394
2019-03-20T09:37:50.810Z,12.227173
2019-03-20T09:38:43.545Z,12.257385
2019-03-20T09:39:40.253Z,12.277527
2019-03-20T09:40:40.349Z,12.297668
2019-03-20T09:41:40.411Z,12.43866
2019-03-20T09:42:40.574Z,12.43866
2019-03-20T09:43:40.552Z,12.56958
2019-03-20T09:44:40.660Z,12.831421
2019-03-20T09:45:40.711Z,13.063049
2019-03-20T09:46:40.698Z,13.395386
2019-03-20T09:47:40.725Z,13.677368
2019-03-20T09:48:40.835Z,13.57666
2019-03-20T09:49:40.858Z,13.536377
2019-03-20T09:50:40.911Z,13.57666
2019-03-20T09:51:40.919Z,13.486023
2019-03-20T09:52:41.065Z,13.425598
2019-03-20T09:53:41.080Z,13.19397
2019-03-20T09:54:41.135Z,12.861633
2019-03-20T09:55:41.243Z,12.811279
2019-03-20T09:56:41.371Z,12.861633
2019-03-20T09:57:41.490Z,12.831421
2019-03-20T09:58:41.507Z,12.750854
2019-03-20T09:59:41.497Z,12.871704
2019-03-20T10:00:41.525Z,12.881775
2019-03-20T10:01:41.534Z,12.861633
2019-03-20T10:02:41.610Z,12.911987
2019-03-20T10:03:41.640Z,13.032837
2019-03-20T10:04:41.702Z,12.992554
2019-03-20T10:05:41.721Z,12.992554
2019-03-20T10:06:41.722Z,12.992554
2019-03-20T10:07:41.774Z,13.133545
2019-03-20T10:08:41.794Z,13.234253
2019-03-20T10:09:41.933Z,13.334961
2019-03-20T10:10:41.947Z,13.314819
2019-03-20T10:11:41.998Z,13.355103
2019-03-20T10:12:41.972Z,13.596802
2019-03-20T10:13:41.982Z,13.536377
2019-03-20T10:14:41.996Z,13.465881
2019-03-20T10:15:42.009Z,13.274536
2019-03-20T10:16:42.032Z,13.093262
2019-03-20T10:17:42.109Z,13.063049
2019-03-20T10:18:42.106Z,12.911987
2019-03-20T10:19:42.161Z,13.022766
2019-03-20T10:20:42.282Z,13.083191
2019-03-20T10:21:42.332Z,13.173828
2019-03-20T10:22:42.423Z,13.063049
2019-03-20T10:23:42.483Z,13.052979
2019-03-20T10:24:42.513Z,13.214111
2019-03-20T10:25:44.682Z,13.264465
2019-03-20T10:26:42.589Z,13.385315
2019-03-20T10:27:42.708Z,13.395386
2019-03-20T10:28:42.734Z,13.385315
2019-03-20T10:29:42.863Z,13.314819
2019-03-20T10:30:42.871Z,13.334961
2019-03-20T10:31:42.945Z,13.355103
2019-03-20T10:32:42.998Z,13.415527
2019-03-20T10:33:43.001Z,13.455811
2019-03-20T10:34:43.035Z,13.455811
2019-03-20T10:35:50.072Z,13.355103
2019-03-20T10:36:43.061Z,13.355103
2019-03-20T10:37:43.176Z,13.204041
2019-03-20T10:38:43.203Z,13.244324
2019-03-20T10:39:44.234Z,13.536377
2019-03-20T10:40:43.298Z,13.596802
2019-03-20T10:41:43.351Z,13.57666
2019-03-20T10:42:43.527Z,13.727722
2019-03-20T10:43:43.500Z,13.757935
2019-03-20T10:44:43.621Z,13.818359
2019-03-20T10:45:43.658Z,13.82843
2019-03-20T10:46:43.710Z,13.868713
2019-03-20T10:47:43.763Z,13.908997
2019-03-20T10:48:43.891Z,13.536377
2019-03-20T10:49:43.957Z,13.113403
2019-03-20T10:50:44.030Z,13.133545
2019-03-20T10:51:44.109Z,13.284607
2019-03-20T10:52:44.151Z,13.385315
2019-03-20T10:53:44.215Z,13.415527
2019-03-20T10:54:44.268Z,13.385315
2019-03-20T10:55:44.317Z,13.415527
2019-03-20T10:56:44.356Z,13.284607
2019-03-20T10:57:44.412Z,13.19397
2019-03-20T10:58:44.518Z,12.992554
2019-03-20T10:59:44.564Z,12.932129
2019-03-20T11:00:44.660Z,12.952271
2019-03-20T11:01:44.733Z,12.952271
2019-03-20T11:02:44.796Z,12.871704
2019-03-20T11:03:44.924Z,12.881775
2019-03-20T11:04:44.967Z,13.123474
2019-03-20T11:05:45.031Z,13.274536
2019-03-20T11:06:45.082Z,13.284607
2019-03-20T11:07:45.134Z,13.365173
2019-03-20T11:08:45.253Z,13.244324
2019-03-20T11:09:45.297Z,13.234253
2019-03-20T11:10:45.335Z,13.425598
2019-03-20T11:11:45.399Z,13.566589
2019-03-20T11:12:45.453Z,13.677368
2019-03-20T11:13:45.546Z,13.858643
2019-03-20T11:14:45.609Z,13.637085
2019-03-20T11:15:45.661Z,13.214111
2019-03-20T11:16:45.688Z,13.234253
2019-03-20T11:17:45.769Z,13.264465
2019-03-20T11:18:48.357Z,13.304749
2019-03-20T11:19:45.909Z,13.486023
2019-03-20T11:20:45.940Z,13.455811
2019-03-20T11:21:45.987Z,13.566589
2019-03-20T11:22:46.043Z,13.606873
2019-03-20T11:23:46.130Z,13.596802
2019-03-20T11:24:46.311Z,13.707581
2019-03-20T11:25:46.237Z,13.747864
2019-03-20T11:26:47.272Z,13.566589
2019-03-20T11:27:46.316Z,13.798218
2019-03-20T11:28:46.404Z,14.070129
2019-03-20T11:29:46.456Z,14.120483
2019-03-20T11:30:46.512Z,14.130554
2019-03-20T11:31:46.595Z,14.20105
2019-03-20T11:32:46.724Z,14.20105
2019-03-20T11:33:46.808Z,14.160767
2019-03-20T11:34:46.842Z,14.150696
2019-03-20T11:35:46.885Z,14.0802
2019-03-20T11:36:46.945Z,14.110413
2019-03-20T11:37:46.975Z,14.402466
2019-03-20T11:38:47.073Z,14.634094
2019-03-20T11:39:47.117Z,14.58374
2019-03-20T11:40:47.168Z,14.432678
2019-03-20T11:41:47.207Z,14.251404
2019-03-20T11:42:47.269Z,13.94928